Time;durP1;ratioP1;P1;durP2;ratioP2;P2;SDS_P1;SDS_P2;PMS_P1;PMS_P2;Temp;Humidity;BMP_temperature;BMP_pressure;BME280_temperature;BME280_humidity;BME280_pressure;Samples;Min_cycle;Max_cycle;Signal;HPM_P1;HPM_P2
2022/12/20 00:01:12;;;;;;;;;;;;;;;19.85;19.67;99074.22;4986346;28;19953;-84
2022/12/20 00:03:38;;;;;;;;;;;;;;;19.96;19.77;99075.13;4991194;28;19929;-84
2022/12/20 00:06:04;;;;;;;;;;;;;;;19.59;20.06;99071.53;4981818;28;20319;-84
2022/12/20 00:08:31;;;;;;;;;;;;;;;19.78;20.59;99073.34;4987919;28;19933;-84
2022/12/20 00:10:59;;;;;;;;;;;;;;;20.35;19.83;99078.31;4983072;28;19922;-84
2022/12/20 00:13:25;;;;;;;;;;;;;;;20.52;19.86;99066.50;4988563;28;19918;-84
2022/12/20 00:16:02;;;;;;;;;;;;;;;20.40;19.62;99074.38;4980976;28;19984;-84
2022/12/20 00:18:28;;;;;;;;;;;;;;;20.30;20.21;99081.47;4992237;28;20377;-84
2022/12/20 00:20:58;;;;;;;;;;;;;;;20.22;19.78;99074.22;4985327;28;20379;-84
2022/12/20 00:23:24;;;;;;;;;;;;;;;19.95;20.48;99090.22;4992939;28;20475;-84
2022/12/20 00:25:50;;;;;;;;;;;;;;;20.47;20.63;99085.59;4985621;28;20460;-84
2022/12/20 00:28:16;;;;;;;;;;;;;;;20.67;19.98;99085.00;4993889;28;20855;-84
2022/12/20 00:30:42;;;;;;;94.67;56.37;;;;;;;20.51;19.94;99075.28;4991497;28;20440;-84
2022/12/20 00:33:08;;;;;;;90.25;53.05;;;;;;;20.71;20.26;99082.22;4977773;28;20498;-84
2022/12/20 00:35:35;;;;;;;86.18;52.83;;;;;;;21.13;19.35;99084.50;4980189;28;20426;-84
2022/12/20 00:38:01;;;;;;;91.30;55.10;;;;;;;20.76;19.68;99084.66;4983105;28;20908;-84
2022/12/20 00:40:27;;;;;;;96.43;56.90;;;;;;;20.16;20.29;99083.28;4991609;28;20436;-84
2022/12/20 00:42:53;;;;;;;92.35;54.20;;;;;;;20.21;20.89;99088.53;4983047;28;20788;-84
2022/12/20 00:45:19;;;;;;;;;;;;;;;20.74;20.44;99089.81;4983460;28;20350;-84
2022/12/20 00:47:45;;;;;;;86.97;52.90;;;;;;;21.44;19.24;99103.44;4983731;28;20477;-85
2022/12/20 00:50:12;;;;;;;;;;;;;;;21.73;19.42;99090.38;4980807;28;20452;-84
2022/12/20 00:52:38;;;;;;;;;;;;;;;21.76;19.54;99096.00;4990754;28;20422;-84
2022/12/20 00:55:04;;;;;;;;;;;;;;;21.79;19.69;99097.22;5012136;28;19909;-84
2022/12/20 00:57:30;;;;;;;;;;;;;;;21.49;19.53;99091.09;4987374;28;25126;-85
2022/12/20 00:59:56;;;;;;;;;;;;;;;21.22;20.16;99099.72;4987413;28;19910;-84
2022/12/20 01:02:22;;;;;;;84.55;51.00;;;;;;;20.68;20.22;99097.72;4984862;28;20417;-85
2022/12/20 01:04:48;;;;;;;;;;;;;;;20.48;20.43;99090.00;4983076;28;20435;-85
2022/12/20 01:07:15;;;;;;;82.27;50.93;;;;;;;20.44;20.67;99083.59;4982486;28;20444;-85
2022/12/20 01:09:41;;;;;;;81.68;48.30;;;;;;;20.57;20.56;99088.47;4990348;28;20420;-85
2022/12/20 01:12:07;;;;;;;;;;;;;;;20.06;20.87;99075.63;5002317;28;20407;-85
2022/12/20 01:14:33;;;;;;;84.95;52.00;;;;;;;20.02;20.93;99072.81;4978563;28;20502;-85
2022/12/20 01:16:59;;;;;;;;;;;;;;;20.18;21.40;99073.38;4993722;28;20418;-85
2022/12/20 01:19:25;;;;;;;80.53;48.58;;;;;;;20.75;20.50;99066.28;4986608;28;20433;-84
2022/12/20 01:21:51;;;;;;;78.15;47.05;;;;;;;20.70;20.83;99066.63;4983461;28;20448;-85
2022/12/20 01:24:19;;;;;;;75.43;45.33;;;;;;;21.17;20.37;99063.78;4991390;28;20827;-85
2022/12/20 01:26:46;;;;;;;80.03;48.83;;;;;;;20.83;20.29;99055.97;4992779;28;20436;-85
2022/12/20 01:29:12;;;;;;;;;;;;;;;20.61;20.45;99066.97;4983419;28;20425;-85
2022/12/20 01:31:39;;;;;;;77.60;46.10;;;;;;;20.94;20.82;99059.63;4979700;28;20475;-85
2022/12/20 01:34:05;;;;;;;75.15;46.13;;;;;;;21.09;20.05;99053.78;4989752;28;20421;-85
2022/12/20 01:36:34;;;;;;;74.80;44.70;;;;;;;21.47;20.31;99049.56;4984880;28;20420;-85
2022/12/20 01:39:02;;;;;;;68.93;42.03;;;;;;;21.64;19.83;99043.25;4974897;28;20497;-85
2022/12/20 01:41:30;;;;;;;64.90;40.30;;;;;;;21.61;19.88;99044.03;4968735;28;20886;-84
2022/12/20 01:44:03;;;;;;;73.97;45.37;;;;;;;21.18;19.97;99034.69;4985123;28;20409;-85
2022/12/20 01:46:32;;;;;;;75.57;45.10;;;;;;;20.99;20.10;99046.13;4975288;28;20768;-85
2022/12/20 01:49:04;;;;;;;67.57;42.60;;;;;;;21.06;20.93;99032.22;5000886;28;20412;-85
2022/12/20 01:51:34;;;;;;;56.92;34.45;;;;;;;21.50;20.67;99031.22;4963853;28;20448;-85
2022/12/20 01:54:12;;;;;;;57.80;35.83;;;;;;;21.50;19.91;99025.63;4998452;28;20398;-85
2022/12/20 01:56:40;;;;;;;61.88;38.35;;;;;;;21.03;20.34;99021.81;4988422;28;20997;-85
2022/12/20 01:59:07;;;;;;;68.35;41.72;;;;;;;20.37;21.00;99019.38;4978147;28;20491;-85
2022/12/20 02:01:33;;;;;;;;;;;;;;;20.74;20.86;99019.25;4978964;28;20981;-85
2022/12/20 02:03:59;;;;;;;49.60;30.97;;;;;;;21.26;20.93;99013.97;4979127;28;19945;-85
2022/12/20 02:06:26;;;;;;;42.93;27.00;;;;;;;21.81;20.15;99013.75;4963346;28;20932;-85
2022/12/20 02:08:56;;;;;;;38.93;24.17;;;;;;;22.21;20.11;99012.63;4985928;28;20431;-85
2022/12/20 02:11:33;;;;;;;34.20;21.45;;;;;;;22.29;19.65;99014.22;4981973;28;20541;-85
2022/12/20 02:14:34;;;;;;;30.80;19.00;;;;;;;22.41;19.71;99023.00;4988347;28;21093;-85
2022/12/20 02:17:44;;;;;;;25.30;15.95;;;;;;;22.26;20.07;99040.22;4983077;28;20422;-85
2022/12/20 02:20:19;;;;;;;24.95;15.45;;;;;;;22.35;20.55;99035.81;4978293;28;20428;-85
2022/12/20 02:23:03;;;;;;;27.60;16.83;;;;;;;22.60;20.16;99031.03;4985453;28;20449;-85
2022/12/20 02:25:59;;;;;;;39.00;23.70;;;;;;;22.40;19.71;99015.84;4986568;28;20501;-85
2022/12/20 02:28:50;;;;;;;44.88;26.15;;;;;;;21.83;20.24;99019.72;4981857;28;20426;-85
2022/12/20 02:31:23;;;;;;;44.85;28.23;;;;;;;21.92;20.72;99017.38;4977762;28;20462;-85
2022/12/20 02:33:51;;;;;;;42.20;25.30;;;;;;;22.32;20.26;99007.81;4978979;28;20422;-85
2022/12/20 02:36:18;;;;;;;45.15;28.35;;;;;;;22.47;19.73;98999.03;4978390;28;20429;-85
2022/12/20 02:38:44;;;;;;;54.80;34.50;;;;;;;21.38;20.62;99000.84;4979407;28;20461;-85
2022/12/20 02:41:36;;;;;;;51.47;32.47;;;;;;;21.32;20.91;98995.66;4976429;28;20416;-85
2022/12/20 02:47:01;;;;;;;57.42;35.75;;;;;;;20.47;21.53;98982.38;4983098;28;20532;-85
2022/12/20 02:49:31;;;;;;;66.28;40.30;;;;;;;19.44;22.75;98988.19;4975207;28;20419;-85
2022/12/20 02:52:00;;;;;;;63.95;40.58;;;;;;;19.37;23.02;98980.53;4974241;28;20446;-85
2022/12/20 02:54:27;;;;;;;52.05;33.25;;;;;;;20.05;22.79;98996.75;4985994;28;20933;-85
2022/12/20 02:57:15;;;;;;;51.17;31.67;;;;;;;20.22;22.72;98985.00;4980965;28;20401;-85
2022/12/20 03:00:08;;;;;;;40.50;26.38;;;;;;;20.65;21.69;98989.66;4973992;28;20799;-85
2022/12/20 03:05:22;;;;;;;30.92;18.70;;;;;;;21.43;21.70;98986.47;4984899;28;20499;-85
2022/12/20 03:07:49;;;;;;;35.30;21.77;;;;;;;21.82;20.90;98990.19;4979686;28;20437;-85
2022/12/20 03:10:15;;;;;;;;;;;;;;;21.97;21.00;98994.63;4986001;28;20426;-85
2022/12/20 03:12:41;;;;;;;30.65;19.20;;;;;;;22.21;20.85;98993.84;4988297;28;20479;-85
2022/12/20 03:15:08;;;;;;;;;;;;;;;22.28;20.77;99001.44;4988602;28;20546;-85
2022/12/20 03:17:34;;;;;;;;;;;;;;;22.48;20.94;99002.63;5000731;28;19924;-85
2022/12/20 03:20:00;;;;;;;;;;;;;;;22.42;20.41;99004.22;4990577;28;19921;-84
2022/12/20 03:22:26;;;;;;;;;;;;;;;22.21;20.68;98998.63;4979108;28;19964;-85
2022/12/20 03:24:52;;;;;;;;;;;;;;;22.22;20.75;98991.84;4992858;28;20016;-85
2022/12/20 03:27:18;;;;;;;;;;;;;;;22.24;20.04;98992.25;4985379;28;20005;-85
2022/12/20 03:29:44;;;;;;;;;;;;;;;21.48;20.98;98991.69;4987545;28;19975;-85
2022/12/20 03:32:11;;;;;;;48.20;29.65;;;;;;;21.65;20.75;98985.34;4977651;28;20951;-85
2022/12/20 03:34:37;;;;;;;44.90;29.17;;;;;;;22.09;20.93;98980.25;4982741;28;20455;-85
2022/12/20 03:37:03;;;;;;;47.42;30.70;;;;;;;21.66;20.77;98984.16;4983706;28;20429;-84
2022/12/20 03:39:29;;;;;;;45.75;28.90;;;;;;;21.68;21.56;98981.78;4980157;28;20474;-84
2022/12/20 03:41:56;;;;;;;41.17;25.87;;;;;;;21.99;21.16;98983.84;4984407;28;20790;-83
2022/12/20 03:44:23;;;;;;;38.17;25.00;;;;;;;22.46;21.23;98986.25;4980655;28;20781;-83
2022/12/20 03:46:49;;;;;;;36.03;24.08;;;;;;;22.25;20.49;98991.84;4980887;28;20474;-83
2022/12/20 03:49:15;;;;;;;36.40;23.25;;;;;;;21.81;21.08;98986.59;4979808;28;20522;-83
2022/12/20 03:51:42;;;;;;;31.43;20.40;;;;;;;22.14;21.62;98982.66;4980789;28;20432;-83
2022/12/20 03:54:08;;;;;;;28.70;18.40;;;;;;;22.54;20.99;98976.63;4965756;28;20416;-82
2022/12/20 03:56:34;;;;;;;31.33;20.17;;;;;;;22.84;20.10;98978.19;4979331;28;20426;-81
2022/12/20 03:59:00;;;;;;;38.35;24.75;;;;;;;21.74;20.88;98975.41;4960827;28;20433;-83
2022/12/20 04:01:28;;;;;;;30.30;19.50;;;;;;;21.44;21.90;98976.91;4975468;28;20554;-85
2022/12/20 04:03:55;;;;;;;30.05;20.00;;;;;;;21.96;21.06;98956.69;4979375;28;20428;-82
2022/12/20 04:06:22;;;;;;;34.65;22.15;;;;;;;22.08;20.71;98970.25;4978943;28;20459;-84
2022/12/20 04:08:49;;;;;;;31.65;20.80;;;;;;;22.28;20.23;98974.28;4979956;28;20428;-83
2022/12/20 04:11:15;;;;;;;36.47;23.30;;;;;;;22.12;20.02;98973.06;4986413;28;20411;-84
2022/12/20 04:13:46;;;;;;;29.95;19.70;;;;;;;22.27;20.47;98972.66;4977275;28;20424;-83
2022/12/20 04:16:14;;;;;;;30.25;18.65;;;;;;;22.39;20.44;98969.47;4983807;28;20479;-84
2022/12/20 04:18:41;;;;;;;30.15;19.48;;;;;;;22.40;19.58;98964.66;4984795;28;20414;-83
2022/12/20 04:21:08;;;;;;;35.25;23.13;;;;;;;22.24;19.75;98967.84;4988787;28;20573;-85
2022/12/20 04:23:36;;;;;;;46.53;27.33;;;;;;;22.09;19.90;98957.88;4986805;28;20463;-84
2022/12/20 04:26:04;;;;;;;46.77;28.67;;;;;;;21.57;20.17;98962.19;4987112;28;20415;-84
2022/12/20 04:28:31;;;;;;;45.00;28.50;;;;;;;21.42;20.27;98956.97;4989019;28;20422;-83
2022/12/20 04:30:57;;;;;;;43.92;27.30;;;;;;;21.31;20.70;98963.31;4983907;28;20947;-84
2022/12/20 04:33:25;;;;;;;48.07;29.10;;;;;;;21.28;20.30;98966.09;4984185;28;20463;-84
2022/12/20 04:35:51;;;;;;;41.47;25.87;;;;;;;21.43;20.42;98958.53;4986669;28;20416;-84
2022/12/20 04:38:19;;;;;;;42.10;26.35;;;;;;;21.54;20.08;98959.41;4993800;28;20453;-84
2022/12/20 04:40:47;;;;;;;44.43;27.53;;;;;;;21.59;20.17;98958.97;4988638;28;20421;-84
2022/12/20 04:43:13;;;;;;;43.42;28.17;;;;;;;21.48;20.10;98961.75;4988166;28;20437;-85
2022/12/20 04:45:39;;;;;;;49.60;30.10;;;;;;;21.56;20.30;98954.19;4979316;28;20885;-85
2022/12/20 04:48:05;;;;;;;45.10;26.88;;;;;;;21.68;20.36;98956.63;4978223;28;20922;-86
2022/12/20 04:50:32;;;;;;;46.28;28.67;;;;;;;21.67;19.72;98952.22;4982925;28;20408;-85
2022/12/20 04:55:42;;;;;;;42.03;24.98;;;;;;;21.68;20.14;98957.41;4983809;28;20481;-84
2022/12/20 04:58:09;;;;;;;40.63;25.42;;;;;;;21.79;20.07;98941.47;4994401;28;20394;-83
2022/12/20 05:00:35;;;;;;;42.60;26.60;;;;;;;21.83;20.26;98950.66;4981218;28;20503;-83
2022/12/20 05:03:01;;;;;;;43.83;27.13;;;;;;;21.77;20.04;98954.25;4975687;28;20434;-84
2022/12/20 05:05:27;;;;;;;48.97;28.95;;;;;;;21.77;20.07;98954.25;4982675;28;20414;-84
2022/12/20 05:07:54;;;;;;;48.13;30.67;;;;;;;21.86;19.84;98949.88;4978074;28;20409;-84
2022/12/20 05:10:21;;;;;;;50.22;30.23;;;;;;;21.91;19.76;98960.66;4988337;28;20419;-84
2022/12/20 05:12:47;;;;;;;50.75;30.42;;;;;;;21.76;19.84;98958.22;4987988;28;20409;-83
2022/12/20 05:15:13;;;;;;;52.08;31.73;;;;;;;21.79;19.83;98958.25;4986233;28;20439;-84
2022/12/20 05:17:39;;;;;;;50.80;32.00;;;;;;;21.75;19.47;98957.41;4989122;28;20404;-84
2022/12/20 05:20:06;;;;;;;52.10;30.10;;;;;;;21.89;19.89;98956.69;4982025;28;20422;-83
2022/12/20 05:28:04;;;;;;;62.75;33.78;;;;;;;22.17;19.74;98958.69;4983063;28;20468;-83
2022/12/20 05:30:30;;;;;;;67.53;37.13;;;;;;;22.28;19.09;98959.47;4985660;28;20465;-83
2022/12/20 05:32:56;;;;;;;67.93;39.03;;;;;;;22.08;18.92;98952.69;4986541;28;20434;-83
2022/12/20 05:35:22;;;;;;;61.72;34.45;;;;;;;21.65;19.59;98957.41;4978932;28;20923;-83
2022/12/20 05:37:48;;;;;;;66.32;38.03;;;;;;;21.19;19.87;98958.06;4983462;28;20422;-83
2022/12/20 05:40:15;;;;;;;;;;;;;;;21.45;20.01;98964.56;4977741;28;20476;-83
2022/12/20 05:42:41;;;;;;;;;;;;;;;21.45;19.73;98958.97;4984620;28;19929;-83
2022/12/20 05:45:07;;;;;;;;;;;;;;;21.37;20.08;98948.97;4979934;28;19922;-81
2022/12/20 05:47:33;;;;;;;;;;;;;;;21.67;19.65;98955.00;4982231;28;19917;-86
2022/12/20 05:49:59;;;;;;;;;;;;;;;21.62;19.44;98955.41;4987269;28;20285;-79
2022/12/20 05:52:25;;;;;;;;;;;;;;;21.12;19.69;98960.84;4981282;28;19976;-85
2022/12/20 05:54:51;;;;;;;;;;;;;;;21.15;19.84;98962.84;4985673;28;19975;-81
2022/12/20 05:57:17;;;;;;;;;;;;;;;21.20;19.83;98964.47;4979709;28;20333;-82
2022/12/20 05:59:44;;;;;;;52.17;32.25;;;;;;;20.85;18.99;98967.88;4989666;28;20427;-82
2022/12/20 06:02:10;;;;;;;53.90;31.93;;;;;;;20.35;20.51;98963.97;4979391;28;20426;-82
2022/12/20 06:04:37;;;;;;;56.95;34.58;;;;;;;19.90;20.68;98969.94;4992803;28;20422;-82
2022/12/20 06:07:04;;;;;;;52.28;31.77;;;;;;;20.12;20.74;98966.16;4988188;28;20418;-82
2022/12/20 06:09:31;;;;;;;53.15;32.45;;;;;;;20.47;20.37;98965.63;4980534;28;20893;-82
2022/12/20 06:11:58;;;;;;;48.80;29.35;;;;;;;20.80;20.21;98956.25;4973635;28;20396;-82
2022/12/20 06:14:24;;;;;;;55.37;33.63;;;;;;;20.91;19.37;98954.34;4979887;28;20407;-82
2022/12/20 06:16:50;;;;;;;61.83;36.30;;;;;;;20.43;20.28;98957.25;4983730;28;20883;-82
2022/12/20 06:19:17;;;;;;;61.55;37.30;;;;;;;20.50;20.23;98951.72;4975123;28;20415;-82
2022/12/20 06:21:43;;;;;;;70.78;40.58;;;;;;;20.68;19.76;98949.03;4979350;28;20463;-82
2022/12/20 06:24:09;;;;;;;65.67;38.90;;;;;;;20.61;19.53;98949.78;4977226;28;20444;-82
2022/12/20 06:26:35;;;;;;;71.93;40.75;;;;;;;19.35;20.76;98938.31;4982288;28;20414;-82
2022/12/20 06:29:06;;;;;;;64.25;38.70;;;;;;;19.21;20.96;98944.53;4971933;28;20417;-82
2022/12/20 06:31:32;;;;;;;55.15;34.30;;;;;;;19.73;21.30;98934.34;4977037;28;20427;-82
2022/12/20 06:33:58;;;;;;;62.22;38.25;;;;;;;20.18;20.34;98938.72;4978276;28;20442;-82
2022/12/20 06:36:25;;;;;;;64.43;38.10;;;;;;;20.49;19.46;98936.16;4975243;28;20415;-82
2022/12/20 06:38:51;;;;;;;63.05;37.75;;;;;;;19.93;20.48;98935.72;4980558;28;20416;-82
2022/12/20 06:41:18;;;;;;;59.88;35.63;;;;;;;19.85;20.70;98937.66;4980002;28;20920;-82
2022/12/20 06:43:44;;;;;;;58.10;34.40;;;;;;;20.13;20.60;98937.09;4979057;28;20424;-82
2022/12/20 06:46:10;;;;;;;54.92;33.22;;;;;;;20.65;20.66;98933.09;4986529;28;20443;-82
2022/12/20 06:48:36;;;;;;;52.90;33.42;;;;;;;20.96;19.98;98937.19;4976708;28;20450;-82
2022/12/20 06:51:02;;;;;;;62.80;38.30;;;;;;;20.15;20.11;98937.50;4977051;28;20422;-82
2022/12/20 06:53:28;;;;;;;56.00;33.85;;;;;;;19.90;20.94;98939.28;4981199;28;20510;-82
2022/12/20 06:55:54;;;;;;;47.30;29.98;;;;;;;20.21;20.93;98940.75;4967108;28;20410;-82
2022/12/20 06:58:20;;;;;;;47.50;29.58;;;;;;;20.66;20.02;98932.69;4985236;28;20421;-82
2022/12/20 07:00:47;;;;;;;45.90;27.90;;;;;;;21.00;20.58;98929.66;4982149;28;25116;-82
2022/12/20 07:03:14;;;;;;;42.15;26.08;;;;;;;21.52;20.00;98929.03;4973952;28;20789;-82
2022/12/20 07:05:40;;;;;;;44.22;27.92;;;;;;;21.43;19.71;98928.63;4974975;28;20918;-82
2022/12/20 07:08:07;;;;;;;48.10;29.20;;;;;;;21.60;19.23;98930.66;4979990;28;20427;-82
2022/12/20 07:10:35;;;;;;;46.33;28.40;;;;;;;21.52;19.07;98919.88;4985143;28;20786;-82
2022/12/20 07:13:02;;;;;;;37.63;24.88;;;;;;;21.39;20.22;98924.22;4975967;28;20479;-82
2022/12/20 07:15:28;;;;;;;38.97;24.52;;;;;;;21.62;19.74;98917.09;4976938;28;20421;-82
2022/12/20 07:17:54;;;;;;;34.93;22.97;;;;;;;21.84;19.63;98923.53;4959416;28;20428;-82
2022/12/20 07:20:20;;;;;;;39.28;24.80;;;;;;;22.07;18.96;98911.94;4983952;28;20456;-82
2022/12/20 07:22:47;;;;;;;36.93;23.33;;;;;;;22.18;19.22;98913.53;4977519;28;20436;-82
2022/12/20 07:25:13;;;;;;;38.05;23.10;;;;;;;21.96;18.88;98925.94;4977644;28;20423;-82
2022/12/20 07:27:39;;;;;;;34.80;20.92;;;;;;;21.59;19.64;98922.66;4981664;28;20414;-82
2022/12/20 07:30:06;;;;;;;35.10;22.15;;;;;;;21.73;19.65;98925.47;4980358;28;20414;-82
2022/12/20 07:32:32;;;;;;;33.75;20.52;;;;;;;21.89;19.43;98929.50;4985966;28;20431;-82
2022/12/20 07:34:58;;;;;;;33.00;20.05;;;;;;;21.95;19.74;98927.13;4986466;28;20437;-83
2022/12/20 07:37:27;;;;;;;32.33;20.63;;;;;;;21.92;19.46;98922.31;4980574;28;20433;-82
2022/12/20 07:39:53;;;;;;;33.47;21.13;;;;;;;21.97;19.36;98928.31;4961768;28;20423;-82
2022/12/20 07:42:19;;;;;;;32.85;21.33;;;;;;;22.18;19.67;98932.28;4975040;28;20419;-82
2022/12/20 07:44:46;;;;;;;31.80;19.60;;;;;;;22.44;19.15;98926.28;4973793;28;20917;-82
2022/12/20 07:47:12;;;;;;;42.67;27.33;;;;;;;21.07;19.75;98922.16;4972661;28;20425;-82
2022/12/20 07:49:38;;;;;;;36.83;23.57;;;;;;;21.23;19.87;98921.78;4982929;28;20454;-82
2022/12/20 07:52:06;;;;;;;36.55;23.98;;;;;;;21.43;20.34;98933.41;4983952;28;20929;-82
2022/12/20 07:54:41;;;;;;;36.42;22.65;;;;;;;21.73;19.88;98931.84;4983340;28;20424;-82
2022/12/20 07:57:17;;;;;;;38.38;24.77;;;;;;;21.84;19.47;98926.31;4984789;28;20406;-82
2022/12/20 07:59:49;;;;;;;33.55;21.70;;;;;;;21.87;20.77;98931.91;4988543;28;20433;-82
2022/12/20 08:02:31;;;;;;;40.67;24.90;;;;;;;22.13;19.74;98939.09;4981427;28;20435;-82
2022/12/20 08:04:58;;;;;;;39.35;24.98;;;;;;;21.84;19.69;98940.31;4978703;28;20840;-82
2022/12/20 08:07:26;;;;;;;34.55;22.58;;;;;;;22.10;20.43;98937.09;4983920;28;20429;-82
2022/12/20 08:09:52;;;;;;;35.33;22.70;;;;;;;22.25;19.97;98938.69;4977524;28;20477;-82
2022/12/20 08:12:20;;;;;;;37.53;24.05;;;;;;;21.47;20.06;98948.19;4975172;28;20462;-81
2022/12/20 08:14:46;;;;;;;32.42;21.00;;;;;;;21.89;20.26;98945.50;4976031;28;20435;-82
2022/12/20 08:17:13;;;;;;;30.85;20.00;;;;;;;22.33;20.02;98936.69;4985887;28;20465;-82
2022/12/20 08:19:39;;;;;;;33.28;21.40;;;;;;;22.76;19.87;98924.22;4979044;28;20920;-82
2022/12/20 08:22:05;;;;;;;35.85;22.23;;;;;;;22.68;19.69;98920.63;4979422;28;20419;-82
2022/12/20 08:24:32;;;;;;;34.17;22.27;;;;;;;22.37;19.91;98921.50;4977193;28;20522;-82
2022/12/20 08:26:58;;;;;;;38.57;24.47;;;;;;;22.26;20.04;98919.91;4980617;28;20425;-82
2022/12/20 08:29:24;;;;;;;36.40;23.83;;;;;;;22.34;20.36;98919.50;4975085;28;20420;-82
2022/12/20 08:31:51;;;;;;;38.97;26.70;;;;;;;22.74;20.02;98911.81;4980050;28;20420;-82
2022/12/20 08:34:17;;;;;;;42.13;26.93;;;;;;;22.97;20.40;98909.34;4965139;28;20554;-82
2022/12/20 08:36:43;;;;;;;50.95;32.65;;;;;;;23.09;19.53;98901.28;4983461;28;20422;-82
2022/12/20 08:39:10;;;;;;;55.70;35.10;;;;;;;22.20;19.91;98913.13;4982468;28;20772;-82
2022/12/20 08:41:36;;;;;;;52.53;34.58;;;;;;;21.79;20.78;98923.88;4987942;28;20919;-83
2022/12/20 08:44:06;;;;;;;51.63;33.47;;;;;;;21.96;20.52;98925.94;4991115;28;20458;-83
2022/12/20 08:46:33;;;;;;;49.17;32.30;;;;;;;22.30;20.80;98927.09;4984513;28;20430;-86
2022/12/20 08:48:59;;;;;;;54.03;34.28;;;;;;;22.25;20.38;98924.72;4986949;28;20468;-83
2022/12/20 08:51:25;;;;;;;52.35;33.58;;;;;;;22.61;20.58;98919.88;4980369;28;20423;-84
2022/12/20 08:53:52;;;;;;;52.70;35.35;;;;;;;23.01;20.21;98912.94;4985188;28;20874;-84
2022/12/20 08:56:18;;;;;;;56.67;36.58;;;;;;;23.31;20.16;98910.38;4985096;28;20414;-84
2022/12/20 08:58:45;;;;;;;54.92;36.30;;;;;;;22.99;20.33;98902.13;4986354;28;20568;-83
2022/12/20 09:01:15;;;;;;;54.80;37.17;;;;;;;22.48;20.10;98901.88;4975432;28;20452;-84
2022/12/20 09:03:42;;;;;;;56.08;37.40;;;;;;;21.58;21.32;98921.06;4980633;28;20806;-84
2022/12/20 09:06:11;;;;;;;49.93;32.97;;;;;;;21.28;21.74;98910.25;4979892;28;20407;-84
2022/12/20 09:08:38;;;;;;;49.07;31.50;;;;;;;21.09;21.93;98913.38;4988216;28;20980;-84
2022/12/20 09:11:08;;;;;;;47.65;30.23;;;;;;;21.53;21.88;98913.06;4984984;28;20414;-83
2022/12/20 09:13:34;;;;;;;47.47;31.40;;;;;;;21.97;21.18;98916.34;4983917;28;20428;-84
2022/12/20 09:16:03;;;;;;;37.90;25.65;;;;;;;21.10;21.97;98914.94;4983243;28;20421;-84
2022/12/20 09:18:29;;;;;;;33.43;22.73;;;;;;;19.93;22.67;98913.41;4981707;28;20436;-84
2022/12/20 09:20:58;;;;;;;30.77;20.13;;;;;;;20.79;22.74;98905.25;4979566;28;20418;-84
2022/12/20 09:23:24;;;;;;;32.15;20.02;;;;;;;20.94;22.28;98903.31;4985618;28;20422;-84
2022/12/20 09:25:50;;;;;;;29.50;18.73;;;;;;;20.76;22.19;98888.47;4964736;28;20441;-84
2022/12/20 09:28:16;;;;;;;32.40;21.42;;;;;;;20.91;22.08;98876.19;4985738;28;20414;-84
2022/12/20 09:30:43;;;;;;;34.63;22.10;;;;;;;20.82;22.27;98876.53;4958022;28;20502;-84
2022/12/20 09:33:09;;;;;;;36.00;22.95;;;;;;;20.57;22.44;98870.06;4971021;28;20432;-84
2022/12/20 09:35:35;;;;;;;32.90;22.05;;;;;;;21.37;21.80;98876.34;4978389;28;20406;-84
2022/12/20 09:38:01;;;;;;;36.33;22.40;;;;;;;21.84;21.66;98876.78;4986607;28;20561;-84
2022/12/20 09:40:31;;;;;;;30.63;20.15;;;;;;;22.06;21.24;98885.16;4984405;28;21030;-84
2022/12/20 09:42:58;;;;;;;28.43;18.33;;;;;;;21.39;21.71;98888.72;4979182;28;20435;-84
2022/12/20 09:45:28;;;;;;;;;;;;;;;21.26;22.09;98890.28;4975319;28;20420;-84
2022/12/20 09:47:54;;;;;;;;;;;;;;;21.27;22.08;98883.50;4978708;28;20422;-84
2022/12/20 09:50:35;;;;;;;26.83;17.23;;;;;;;20.47;22.46;98890.31;4973447;28;20421;-84
2022/12/20 09:53:05;;;;;;;26.13;16.58;;;;;;;21.17;22.08;98887.03;4977630;28;20423;-84
2022/12/20 09:55:42;;;;;;;25.05;16.20;;;;;;;21.34;21.83;98883.50;4984105;28;20457;-84
2022/12/20 09:58:23;;;;;;;24.92;16.13;;;;;;;21.26;21.97;98887.50;4984399;28;20400;-84
2022/12/20 10:00:50;;;;;;;25.05;16.27;;;;;;;21.03;22.59;98892.56;4980703;28;20464;-84
2022/12/20 10:03:24;;;;;;;25.15;16.35;;;;;;;21.56;22.26;98887.94;4985322;28;20444;-84
2022/12/20 10:05:52;;;;;;;;;;;;;;;21.50;21.75;98886.72;4981848;28;20422;-84
2022/12/20 10:08:37;;;;;;;;;;;;;;;21.45;22.13;98891.91;4981023;28;20461;-84
2022/12/20 10:11:16;;;;;;;27.50;17.08;;;;;;;21.18;22.32;98883.88;4977778;28;20436;-84
2022/12/20 10:13:45;;;;;;;26.55;16.90;;;;;;;21.19;21.82;98882.66;4984073;28;20426;-84
2022/12/20 10:16:41;;;;;;;30.40;17.45;;;;;;;20.70;22.80;98876.09;4986462;28;20770;-84
2022/12/20 10:19:38;;;;;;;24.88;16.40;;;;;;;21.07;22.17;98885.84;4983691;28;20540;-84
2022/12/20 10:22:19;;;;;;;26.52;17.52;;;;;;;21.68;21.62;98875.56;4984432;28;20422;-84
2022/12/20 10:24:55;;;;;;;27.83;17.47;;;;;;;20.77;23.02;98859.38;4980400;28;20495;-84
2022/12/20 10:27:21;;;;;;;26.67;17.23;;;;;;;21.15;21.83;98865.13;4981480;28;20418;-84
2022/12/20 10:29:49;;;;;;;26.25;17.20;;;;;;;21.79;21.50;98860.41;4980548;28;20888;-84
2022/12/20 10:32:22;;;;;;;26.95;17.63;;;;;;;21.88;21.32;98848.84;4984645;28;20471;-84
2022/12/20 10:35:10;;;;;;;27.30;17.90;;;;;;;20.70;22.95;98837.81;4987366;28;20403;-84
2022/12/20 10:37:37;;;;;;;26.85;16.88;;;;;;;20.65;22.56;98829.84;4985366;28;20529;-84
2022/12/20 10:40:03;;;;;;;25.35;16.60;;;;;;;20.59;22.45;98817.44;4979347;28;20414;-84
2022/12/20 10:42:42;;;;;;;25.33;16.30;;;;;;;20.75;22.54;98805.97;4980626;28;20946;-84
2022/12/20 10:45:17;;;;;;;27.10;16.93;;;;;;;20.39;22.92;98799.44;4975665;28;20426;-84
2022/12/20 10:47:46;;;;;;;27.10;17.90;;;;;;;20.95;22.68;98796.84;4975619;28;20422;-84
2022/12/20 10:50:17;;;;;;;25.40;16.35;;;;;;;22.22;21.34;98770.88;4986395;28;20935;-84
2022/12/20 10:52:45;;;;;;;27.05;16.63;;;;;;;22.91;20.90;98768.16;4993740;28;20459;-84
2022/12/20 10:55:36;;;;;;;25.15;16.70;;;;;;;23.35;20.15;98749.47;4963822;28;20426;-84
2022/12/20 10:58:29;;;;;;;26.57;16.97;;;;;;;23.65;20.43;98756.38;4975398;28;20480;-84
2022/12/20 11:01:09;;;;;;;24.73;16.20;;;;;;;24.04;20.34;98759.59;4972107;28;20434;-84
2022/12/20 11:04:03;;;;;;;23.13;15.48;;;;;;;24.55;20.01;98759.41;4979200;28;20489;-84
2022/12/20 11:06:44;;;;;;;26.65;17.40;;;;;;;24.16;20.22;98752.66;4980230;28;20457;-85
2022/12/20 11:09:51;;;;;;;25.20;17.65;;;;;;;23.39;20.95;98757.81;4976149;28;20431;-85
2022/12/20 11:12:17;;;;;;;28.75;17.45;;;;;;;23.47;20.26;98742.56;4980534;28;20440;-85
2022/12/20 11:14:45;;;;;;;25.97;17.60;;;;;;;23.31;20.49;98759.84;4982694;28;20832;-87
2022/12/20 11:17:23;;;;;;;28.77;18.67;;;;;;;23.85;20.44;98758.19;4981011;28;20501;-84
2022/12/20 11:20:32;;;;;;;27.88;17.65;;;;;;;23.21;20.77;98768.34;4966842;28;20457;-86
2022/12/20 11:23:19;;;;;;;27.13;17.83;;;;;;;22.73;21.09;98767.47;4966495;28;20500;-85
2022/12/20 11:25:45;;;;;;;27.45;18.40;;;;;;;23.42;20.95;98765.41;4989606;28;20439;-86
2022/12/20 11:28:33;;;;;;;25.83;17.73;;;;;;;23.72;20.41;98759.13;4988369;28;20513;-86
2022/12/20 11:31:05;;;;;;;26.05;17.95;;;;;;;23.35;20.56;98757.06;4988770;28;20417;-86
2022/12/20 11:33:46;;;;;;;26.95;18.05;;;;;;;22.57;22.19;98768.72;4990889;28;20425;-84
2022/12/20 11:36:31;;;;;;;27.58;17.95;;;;;;;21.86;22.29;98770.16;4980894;28;20421;-85
2022/12/20 11:39:00;;;;;;;30.05;19.02;;;;;;;20.99;23.94;98768.91;4983485;28;20469;-85
2022/12/20 11:41:42;;;;;;;28.30;18.40;;;;;;;21.73;22.51;98752.16;4987223;28;20425;-85
2022/12/20 11:44:19;;;;;;;29.30;19.00;;;;;;;21.75;21.83;98744.97;4984366;28;20457;-86
2022/12/20 11:47:00;;;;;;;28.20;17.93;;;;;;;22.08;21.82;98742.94;4983825;28;20411;-86
2022/12/20 11:49:44;;;;;;;28.20;18.47;;;;;;;22.60;21.46;98733.50;4989055;28;20398;-85
2022/12/20 11:52:39;;;;;;;28.45;18.40;;;;;;;22.85;20.70;98719.41;4989853;28;20436;-85
2022/12/20 11:55:25;;;;;;;28.40;17.25;;;;;;;22.77;21.17;98734.66;4984697;28;20425;-86